• Join FlightAware (Why Join?)
  • Login
  • US Flag 
05:37AM EDT


 

Airport Tracker/Info


-or-


 

Live Flight TrackerFlight Track Log ✈ SWA3868 ✈ 21-Jul-2013 ✈ KBHM - KMCO

Flight Track Log - Related Links

Times and Time Zones

All times are in EDT time to prevent confusion due to time zone crossing. See the SWA3868 flight status page for this flight to view local times or setup timezone preferences in your user account.

Time Position Orientation Groundspeed Altitude Reporting Facility
EDT Latitude Longitude Course Direction KTS MPH feet Rate Location/Type
10:41AM 33.5183 -86.8344 235° Southwest 176 203 3,800  Level Atlanta Center
10:42AM 33.4867 -86.8458 197° South 222 255 4,600 2,100 Climbing Atlanta Center
10:43AM 33.4331 -86.8267 163° South 230 265 7,100 2,760 Climbing Atlanta Center
10:44AM 33.3586 -86.7944 160° South 256 295 10,200 3,000 Climbing Atlanta Center
10:45AM 33.2675 -86.7567 161° South 300 345 13,100 2,940 Climbing Atlanta Center
10:46AM 33.0752 -86.1965 161° South  Level Estimated
10:46AM 33.1744 -86.7167 160° South 334 384 16,100  Level Atlanta Center
10:47AM 33.0753 -86.6739 160° South 361 415 19,000 2,700 Climbing Atlanta Center
10:48AM 32.9739 -86.6314 161° South 373 429 21,600 2,400 Climbing Atlanta Center
10:49AM 32.8683 -86.5886 161° South 383 441 23,800 2,160 Climbing Atlanta Center
10:50AM 32.7628 -86.5436 160° South 398 458 26,000 2,100 Climbing Atlanta Center
10:51AM 32.6508 -86.4983 161° South 404 465 28,000 2,100 Climbing Atlanta Center
10:52AM 32.5411 -86.4536 161° South 414 476 30,300 1,440 Climbing Atlanta Center
10:53AM 32.4356 -86.4139 162° South 408 470 30,900 300 Climbing Atlanta Center
10:54AM 32.3175 -86.3614 159° South 425 489 30,900  Level Atlanta Center
10:55AM 32.2286 -86.3197 158° South 420 483 30,900  Level Atlanta Center
10:56AM 32.1622 -86.1831 120° Southeast 400 460 30,900  Level Atlanta Center
10:57AM 32.0975 -86.0592 122° Southeast 428 493 30,900  Level Atlanta Center
10:58AM 32.0006 -85.8444 118° Southeast 436 502 30,900  Level Jacksonville Center
10:59AM 31.9450 -85.7178 117° Southeast 436 502 30,900  Level Jacksonville Center
11:00AM 31.8850 -85.5936 120° Southeast 436 502 30,900  Level Jacksonville Center
11:01AM 31.8272 -85.4697 119° Southeast 436 502 30,900  Level Jacksonville Center
11:02AM 31.7500 -85.3603 130° Southeast 431 496 30,900  Level Jacksonville Center
11:03AM 31.6664 -85.2578 134° Southeast 431 496 30,900  Level Jacksonville Center
11:04AM 31.5847 -85.1583 134° Southeast 431 496 30,900  Level Jacksonville Center
11:05AM 31.4969 -85.0439 132° Southeast 425 489 31,000  Climbing Jacksonville Center
11:06AM 31.4172 -84.9400 132° Southeast 430 495 31,000  Level Jacksonville Center
11:07AM 31.3333 -84.8358 133° Southeast 430 495 31,000  Level Jacksonville Center
11:08AM 31.2553 -84.7347 132° Southeast 430 495 31,000  Level Jacksonville Center
11:09AM 31.1733 -84.6286 132° Southeast 430 495 31,000  Level Jacksonville Center
11:10AM 31.0933 -84.5253 132° Southeast 430 495 31,000  Level Jacksonville Center
11:11AM 31.0131 -84.4222 132° Southeast 424 488 31,000  Level Jacksonville Center
11:12AM 30.9328 -84.3217 133° Southeast 424 488 31,000  Level Jacksonville Center
11:13AM 30.8547 -84.2211 132° Southeast 424 488 31,000  Level Jacksonville Center
11:14AM 30.7783 -84.1136 130° Southeast 424 488 31,000  Level Jacksonville Center
11:15AM 30.7233 -83.9872 117° Southeast 429 494 31,000  Level Jacksonville Center
11:16AM 30.6678 -83.8658 118° Southeast 429 494 31,000  Level Jacksonville Center
11:17AM 30.6081 -83.7469 120° Southeast 429 494 31,000  Level Jacksonville Center
11:18AM 30.5547 -83.6258 117° Southeast 429 494 31,000  Level Jacksonville Center
11:19AM 30.4947 -83.5072 120° Southeast 423 487 31,000 -540 Level Jacksonville Center
11:20AM 30.4389 -83.3889 119° Southeast 423 487 30,000 -1,500 Descending Jacksonville Center
11:21AM 30.3808 -83.2731 120° Southeast 423 487 28,000 -1,500 Descending Jacksonville Center
11:22AM 30.3247 -83.1572 119° Southeast 423 487 27,000 -540 Descending Jacksonville Center
11:23AM 30.2686 -83.0442 120° Southeast 418 481 27,000 -360 Level Jacksonville Center
11:24AM 30.2206 -82.9431 119° Southeast 413 475 26,300 -900 Descending Jacksonville Center
11:25AM 30.1622 -82.8300 121° Southeast 413 475 25,300 -660 Descending Jacksonville Center
11:26AM 30.1078 -82.7197 120° Southeast 402 463 25,000 -180 Descending Jacksonville Center
11:27AM 30.0469 -82.5997 120° Southeast 402 463 25,000  Level Jacksonville Center
11:28AM 29.9967 -82.4992 120° Southeast 402 463 25,000  Level Jacksonville Center
11:29AM 29.9086 -82.4181 141° Southeast 393 452 25,000  Level Jacksonville Center
11:30AM 29.7894 -82.3614 158° South 422 486 25,000 -540 Level Jacksonville Center
11:31AM 29.6764 -82.3092 158° South 428 493 24,000 -1,020 Descending Jacksonville Center
11:32AM 29.5633 -82.2550 157° South 438 504 23,000 -1,020 Descending Jacksonville Center
11:33AM 29.4506 -82.2033 158° South 438 504 22,000 -1,020 Descending Jacksonville Center
11:34AM 29.3417 -82.1494 157° South 433 498 21,000 -1,800 Descending Jacksonville Center
11:35AM 29.2347 -82.0978 157° South 428 493 18,500 -2,700 Descending Jacksonville Center
11:36AM 29.1258 -82.0464 158° South 422 486 15,700 -2,700 Descending Jacksonville Center
11:37AM 29.0211 -81.9972 158° South 416 479 13,200 -2,160 Descending Jacksonville Center
11:38AM 28.9517 -81.9125 133° Southeast 377 434 11,400 -1,440 Descending Jacksonville Center
11:39AM 28.9050 -81.7969 115° Southeast 347 399 10,400 -1,020 Descending Jacksonville Center
11:40AM 28.8750 -81.7069 111° Southeast 316 364 9,400 -780 Descending Jacksonville Center
11:41AM 28.8428 -81.6269 115° Southeast 302 348 8,900 -300 Descending Jacksonville Center
11:42AM 28.8333 -81.5833 104° East 255 293 9,000 -180 Climbing Orlando TRACON
11:43AM 28.8000 -81.5167 120° Southeast 257 296 8,700 -1,020 Descending Orlando TRACON
11:44AM 28.7667 -81.4333 115° Southeast 263 303 7,000 -1,740 Descending Orlando TRACON
11:45AM 28.7333 -81.3667 120° Southeast 280 322 5,400 -1,440 Descending Orlando TRACON
11:46AM 28.6833 -81.3333 150° Southeast 239 275 4,300 -1,080 Descending Orlando TRACON
11:47AM 28.6167 -81.3333 180° South 188 216 3,200 -960 Descending Orlando TRACON
11:48AM 28.5667 -81.3333 180° South 169 194 2,300 -900 Descending Orlando TRACON
11:49AM 28.5167 -81.3333 180° South 165 190 1,400 -840 Descending Orlando TRACON
11:50AM 28.4833 -81.3333 180° South 129 148 700 -720 Descending Orlando TRACON
11:52AM 28.4294 -81.3090 180° South  Level Estimated
11:59AM 28.4294 -81.3090 24° Northeast  Level Estimated
12:00PM 28.4294 -81.3090 24° Northeast  Level Estimated
12:01PM 28.4294 -81.3090 24° Northeast  Level Estimated
12:02PM 28.4294 -81.3090 24° Northeast  Level Estimated